createdAt,value
2022-09-26T00:01:56.148Z,89.86
2022-09-26T00:04:32.423Z,90.27
2022-09-26T00:07:02.139Z,90.47
2022-09-26T00:09:31.208Z,90.84
2022-09-26T00:12:01.303Z,90.84
2022-09-26T00:14:30.128Z,90.08
2022-09-26T00:16:57.088Z,90.27
2022-09-26T00:19:24.441Z,90.12
2022-09-26T00:21:51.459Z,91.22
2022-09-26T00:24:18.363Z,90.47
2022-09-26T00:26:48.567Z,90.43
2022-09-26T00:29:15.543Z,91.54
2022-09-26T00:31:46.069Z,91.71
2022-09-26T00:34:17.062Z,92.22
2022-09-26T00:36:44.323Z,91.77
2022-09-26T00:39:14.902Z,91.96
2022-09-26T00:41:42.277Z,92.32
2022-09-26T00:44:50.302Z,92.56
2022-09-26T00:47:42.272Z,93.29
2022-09-26T00:50:25.922Z,93.26
2022-09-26T00:52:59.611Z,93.13
2022-09-26T00:55:38.128Z,93.01
2022-09-26T00:58:14.661Z,93.24
2022-09-26T01:00:44.875Z,93.17
2022-09-26T01:03:14.691Z,94.00
2022-09-26T01:05:41.450Z,93.59
2022-09-26T01:08:11.785Z,93.65
2022-09-26T01:10:41.125Z,93.99
2022-09-26T01:13:10.492Z,93.50
2022-09-26T01:15:37.112Z,93.23
2022-09-26T01:18:04.071Z,93.24
2022-09-26T01:20:48.691Z,93.34
2022-09-26T01:23:59.329Z,93.37
2022-09-26T01:26:57.587Z,93.50
2022-09-26T01:29:53.820Z,93.63
2022-09-26T01:32:51.335Z,94.08
2022-09-26T01:35:48.369Z,93.06
2022-09-26T01:39:16.145Z,93.19
2022-09-26T01:41:51.004Z,93.20
2022-09-26T01:44:48.038Z,93.37
2022-09-26T01:47:49.759Z,92.95
2022-09-26T01:50:44.140Z,93.05
2022-09-26T01:53:49.230Z,92.87
2022-09-26T01:56:38.567Z,92.36
2022-09-26T01:59:33.015Z,92.54
2022-09-26T02:02:09.822Z,92.75
2022-09-26T02:04:46.756Z,93.32
2022-09-26T02:07:24.933Z,93.20
2022-09-26T02:10:03.951Z,92.79
2022-09-26T02:12:42.341Z,93.03
2022-09-26T02:15:20.207Z,92.73
2022-09-26T02:18:03.058Z,92.81
2022-09-26T02:20:41.735Z,91.97
2022-09-26T02:23:14.377Z,91.80
2022-09-26T02:25:41.285Z,90.93
2022-09-26T02:28:08.352Z,91.38
2022-09-26T02:30:37.091Z,91.63
2022-09-26T02:33:03.903Z,92.23
2022-09-26T02:35:51.268Z,92.13
2022-09-26T02:38:17.890Z,91.91
2022-09-26T02:40:55.387Z,92.00
2022-09-26T02:43:48.132Z,91.67
2022-09-26T02:46:43.716Z,92.08
2022-09-26T02:49:37.210Z,91.97
2022-09-26T02:52:19.735Z,92.24
2022-09-26T02:55:07.342Z,91.66
2022-09-26T02:58:06.560Z,91.62
2022-09-26T03:00:56.726Z,91.64
2022-09-26T03:03:35.473Z,91.25
2022-09-26T03:06:11.529Z,91.28
2022-09-26T03:08:56.147Z,91.37
2022-09-26T03:11:27.621Z,90.97
2022-09-26T03:13:57.229Z,90.73
2022-09-26T03:16:32.572Z,91.54
2022-09-26T03:19:10.606Z,92.05
2022-09-26T03:21:39.902Z,90.57
2022-09-26T03:24:10.350Z,91.52
2022-09-26T03:26:41.415Z,90.66
2022-09-26T03:29:12.107Z,90.82
2022-09-26T03:31:41.372Z,91.16
2022-09-26T03:34:10.832Z,90.85
2022-09-26T03:36:39.737Z,90.79
2022-09-26T03:39:06.551Z,90.94
2022-09-26T03:41:34.514Z,90.38
2022-09-26T03:44:09.956Z,90.10
2022-09-26T03:46:39.971Z,89.82
2022-09-26T03:49:07.051Z,90.21
2022-09-26T03:51:33.892Z,90.17
2022-09-26T03:54:00.590Z,89.63
2022-09-26T03:56:27.793Z,89.84
2022-09-26T03:58:56.579Z,89.74
2022-09-26T04:01:28.699Z,89.98
2022-09-26T04:03:57.926Z,89.69
2022-09-26T04:06:27.416Z,89.84
2022-09-26T04:08:56.621Z,89.85
2022-09-26T04:11:24.944Z,89.30
2022-09-26T04:13:54.378Z,90.01
2022-09-26T04:16:23.935Z,89.08
2022-09-26T04:19:00.431Z,90.40
2022-09-26T04:21:27.595Z,89.21
2022-09-26T04:23:57.576Z,90.04
2022-09-26T04:26:28.327Z,89.52
2022-09-26T04:29:01.430Z,89.20
2022-09-26T04:31:31.460Z,89.76
2022-09-26T04:33:58.185Z,89.92
2022-09-26T04:36:33.613Z,89.17
2022-09-26T04:39:02.683Z,89.13
2022-09-26T04:41:32.107Z,90.08
2022-09-26T04:44:19.305Z,89.23
2022-09-26T04:46:46.041Z,90.87
2022-09-26T04:49:17.297Z,90.15
2022-09-26T04:51:48.690Z,89.72
2022-09-26T04:54:18.549Z,91.02
2022-09-26T04:56:47.369Z,90.70
2022-09-26T04:59:14.389Z,89.03
2022-09-26T05:01:41.426Z,89.51
2022-09-26T05:04:09.875Z,89.28
2022-09-26T05:06:36.623Z,89.31
2022-09-26T05:09:04.426Z,89.73
2022-09-26T05:11:32.448Z,89.54
2022-09-26T05:13:59.305Z,89.31
2022-09-26T05:16:28.229Z,89.61
2022-09-26T05:18:56.949Z,89.74
2022-09-26T05:21:27.329Z,89.95
2022-09-26T05:24:12.959Z,89.83
2022-09-26T05:26:46.109Z,90.38
2022-09-26T05:29:13.644Z,89.35
2022-09-26T05:31:40.750Z,89.81
2022-09-26T05:34:14.196Z,89.54
2022-09-26T05:36:45.134Z,88.52
2022-09-26T05:39:30.238Z,89.48
2022-09-26T05:42:01.379Z,89.29
2022-09-26T05:44:41.729Z,88.74
2022-09-26T05:47:09.036Z,88.23
2022-09-26T05:49:38.599Z,88.84
2022-09-26T05:52:05.662Z,89.64
2022-09-26T05:54:35.784Z,90.03
2022-09-26T05:57:07.169Z,89.92
2022-09-26T05:59:34.057Z,89.68
2022-09-26T06:02:06.321Z,90.03
2022-09-26T06:04:33.182Z,88.30
2022-09-26T06:07:02.399Z,88.26
2022-09-26T06:09:31.686Z,87.29
2022-09-26T06:12:00.547Z,87.68
2022-09-26T06:14:28.249Z,88.94
2022-09-26T06:16:55.028Z,88.86
2022-09-26T06:19:23.205Z,87.12
2022-09-26T06:21:50.234Z,87.66
2022-09-26T06:24:30.518Z,86.48
2022-09-26T06:27:17.123Z,85.47
2022-09-26T06:29:46.514Z,86.67
2022-09-26T06:32:23.778Z,86.09
2022-09-26T06:34:51.750Z,86.73
2022-09-26T06:37:22.019Z,85.52
2022-09-26T06:39:54.698Z,85.22
2022-09-26T06:42:29.928Z,85.95
2022-09-26T06:45:14.816Z,85.51
2022-09-26T06:47:43.757Z,85.26
2022-09-26T06:50:10.853Z,84.08
2022-09-26T06:52:37.803Z,84.03
2022-09-26T06:55:08.637Z,84.01
2022-09-26T06:57:41.911Z,82.58
2022-09-26T07:00:13.055Z,82.40
2022-09-26T07:02:49.181Z,81.62
2022-09-26T07:05:17.281Z,82.10
2022-09-26T07:07:45.649Z,82.81
2022-09-26T07:10:23.163Z,82.30
2022-09-26T07:12:53.091Z,82.54
2022-09-26T07:15:20.863Z,81.05
2022-09-26T07:17:48.346Z,79.67
2022-09-26T07:20:19.127Z,80.34
2022-09-26T07:22:47.162Z,81.31
2022-09-26T07:25:14.207Z,77.96
2022-09-26T07:27:42.564Z,79.79
2022-09-26T07:30:16.961Z,79.60
2022-09-26T07:33:07.612Z,78.88
2022-09-26T07:35:37.670Z,78.72
2022-09-26T07:38:05.175Z,77.05
2022-09-26T07:40:39.379Z,78.97
2022-09-26T07:43:32.014Z,75.54
2022-09-26T07:46:14.300Z,74.71
2022-09-26T07:48:59.942Z,74.91
2022-09-26T07:51:31.454Z,78.02
2022-09-26T07:53:58.311Z,79.77
2022-09-26T07:56:27.291Z,77.90
2022-09-26T07:59:01.510Z,77.38
2022-09-26T08:01:28.930Z,75.14
2022-09-26T08:04:00.756Z,72.83
2022-09-26T08:06:38.237Z,74.04
2022-09-26T08:09:07.939Z,71.96
2022-09-26T08:11:35.301Z,76.27
2022-09-26T08:14:07.214Z,73.49
2022-09-26T08:16:34.191Z,76.60
2022-09-26T08:19:03.945Z,75.48
2022-09-26T08:21:30.650Z,76.70
2022-09-26T08:23:57.436Z,74.33
2022-09-26T08:26:24.179Z,71.65
2022-09-26T08:29:06.002Z,71.57
2022-09-26T08:31:33.437Z,73.47
2022-09-26T08:34:00.543Z,72.55
2022-09-26T08:36:28.475Z,72.54
2022-09-26T08:38:56.676Z,70.72
2022-09-26T08:42:00.977Z,71.43
2022-09-26T08:45:49.487Z,72.06
2022-09-26T08:48:47.247Z,68.65
2022-09-26T08:51:42.088Z,69.35
2022-09-26T08:54:41.284Z,68.20
2022-09-26T08:57:32.580Z,72.21
2022-09-26T09:00:01.074Z,70.97
2022-09-26T09:02:45.905Z,69.50
2022-09-26T09:05:25.624Z,69.77
2022-09-26T09:07:57.503Z,70.54
2022-09-26T09:11:07.599Z,67.33
2022-09-26T09:14:05.317Z,67.81
2022-09-26T09:16:51.397Z,67.12
2022-09-26T09:19:58.597Z,62.77
2022-09-26T09:22:41.995Z,65.37
2022-09-26T09:25:30.054Z,65.49
2022-09-26T09:28:41.069Z,63.37
2022-09-26T09:31:15.588Z,61.81
2022-09-26T09:33:59.679Z,61.96
2022-09-26T09:36:51.043Z,63.38
2022-09-26T09:39:36.523Z,64.99
2022-09-26T09:42:19.750Z,67.21
2022-09-26T09:45:05.483Z,62.97
2022-09-26T09:47:39.086Z,63.48
2022-09-26T09:50:15.369Z,61.87
2022-09-26T09:53:08.222Z,61.45
2022-09-26T09:55:59.299Z,62.91
2022-09-26T09:58:25.786Z,60.89
2022-09-26T10:01:30.055Z,62.04
2022-09-26T10:04:08.508Z,60.87
2022-09-26T10:06:46.016Z,62.09
2022-09-26T10:09:36.459Z,60.42
2022-09-26T10:12:16.161Z,60.68
2022-09-26T10:15:02.721Z,61.22
2022-09-26T10:17:29.656Z,57.64
2022-09-26T10:19:57.296Z,59.91
2022-09-26T10:22:44.798Z,57.40
2022-09-26T10:25:23.028Z,57.00
2022-09-26T10:27:55.216Z,58.40
2022-09-26T10:30:31.896Z,55.87
2022-09-26T10:33:08.824Z,54.97
2022-09-26T10:35:49.876Z,54.32
2022-09-26T10:38:26.737Z,54.17
2022-09-26T10:41:01.374Z,55.95
2022-09-26T10:43:37.834Z,56.10
2022-09-26T10:46:12.865Z,52.37
2022-09-26T10:48:48.895Z,53.91
2022-09-26T10:51:28.680Z,51.96
2022-09-26T10:54:13.279Z,54.31
2022-09-26T10:56:49.671Z,54.92
2022-09-26T10:59:19.010Z,55.17
2022-09-26T11:01:51.324Z,55.95
2022-09-26T11:04:45.548Z,55.05
2022-09-26T11:07:25.825Z,55.06
2022-09-26T11:09:59.973Z,55.52
2022-09-26T11:12:32.327Z,58.90
2022-09-26T11:15:08.957Z,57.51
2022-09-26T11:17:47.935Z,54.83
2022-09-26T11:20:42.645Z,54.26
2022-09-26T11:23:34.542Z,51.89
2022-09-26T11:26:44.635Z,51.65
2022-09-26T11:29:51.051Z,52.19
2022-09-26T11:32:27.138Z,52.54
2022-09-26T11:34:54.587Z,52.91
2022-09-26T11:37:40.032Z,54.41
2022-09-26T11:40:30.599Z,55.74
2022-09-26T11:44:00.253Z,53.99
2022-09-26T11:47:46.546Z,56.19
2022-09-26T11:50:39.660Z,52.54
2022-09-26T11:53:28.429Z,52.92
2022-09-26T11:56:38.476Z,52.40
2022-09-26T11:59:17.336Z,53.44
2022-09-26T12:02:09.193Z,52.95
2022-09-26T12:04:55.045Z,55.18
2022-09-26T12:07:52.513Z,52.94
2022-09-26T12:10:39.545Z,53.01
2022-09-26T12:13:43.157Z,53.58
2022-09-26T12:16:49.498Z,56.07
2022-09-26T12:19:47.552Z,54.74
2022-09-26T12:22:49.292Z,55.85
2022-09-26T12:25:38.885Z,54.06
2022-09-26T12:28:45.695Z,57.65
2022-09-26T12:31:48.951Z,55.50
2022-09-26T12:34:57.718Z,57.04
2022-09-26T12:37:58.206Z,55.76
2022-09-26T12:40:39.642Z,56.32
2022-09-26T12:43:34.020Z,59.02
2022-09-26T12:46:44.837Z,58.37
2022-09-26T12:49:58.311Z,57.39
2022-09-26T12:52:43.235Z,57.47
2022-09-26T12:55:47.648Z,57.37
2022-09-26T12:58:42.323Z,56.34
2022-09-26T13:01:33.448Z,56.61
2022-09-26T13:04:32.787Z,57.46
2022-09-26T13:07:25.030Z,57.96
2022-09-26T13:10:10.592Z,59.59
2022-09-26T13:12:55.604Z,61.99
2022-09-26T13:15:35.389Z,61.79
2022-09-26T13:18:16.731Z,59.91
2022-09-26T13:20:51.760Z,64.43
2022-09-26T13:23:31.504Z,62.25
2022-09-26T13:26:46.849Z,58.88
2022-09-26T13:29:25.523Z,61.26
2022-09-26T13:32:36.888Z,63.95
2022-09-26T13:35:20.489Z,61.01
2022-09-26T13:38:20.495Z,58.59
2022-09-26T13:40:55.731Z,57.12
2022-09-26T13:43:53.525Z,53.25
2022-09-26T13:47:01.767Z,57.83
2022-09-26T13:49:58.879Z,55.34
2022-09-26T13:52:42.702Z,57.66
2022-09-26T13:55:21.595Z,57.62
2022-09-26T13:58:03.045Z,59.42
2022-09-26T14:00:48.637Z,62.87
2022-09-26T14:03:18.432Z,60.22
2022-09-26T14:05:46.886Z,59.27
2022-09-26T14:08:51.605Z,61.12
2022-09-26T14:11:49.164Z,61.30
2022-09-26T14:14:18.993Z,59.54
2022-09-26T14:16:56.758Z,61.84
2022-09-26T14:19:41.276Z,56.13
2022-09-26T14:22:23.209Z,58.91
2022-09-26T14:24:56.579Z,57.19
2022-09-26T14:27:36.858Z,57.60
2022-09-26T14:30:30.461Z,59.64
2022-09-26T14:33:12.882Z,57.89
2022-09-26T14:35:39.670Z,55.64
2022-09-26T14:38:17.161Z,53.76
2022-09-26T14:40:59.412Z,51.64
2022-09-26T14:43:31.177Z,50.57
2022-09-26T14:46:19.001Z,49.63
2022-09-26T14:48:46.641Z,53.43
2022-09-26T14:51:16.437Z,51.88
2022-09-26T14:53:56.737Z,51.55
2022-09-26T14:56:46.562Z,51.63
2022-09-26T14:59:25.140Z,52.03
2022-09-26T15:02:10.561Z,54.24
2022-09-26T15:04:38.965Z,57.43
2022-09-26T15:07:24.734Z,54.85
2022-09-26T15:10:14.120Z,59.45
2022-09-26T15:12:59.057Z,56.09
2022-09-26T15:15:56.469Z,56.51
2022-09-26T15:18:40.047Z,59.38
2022-09-26T15:21:26.879Z,58.58
2022-09-26T15:23:57.309Z,57.70
2022-09-26T15:26:35.966Z,60.54
2022-09-26T15:29:07.103Z,62.01
2022-09-26T15:31:43.666Z,61.32
2022-09-26T15:34:13.194Z,63.20
2022-09-26T15:36:44.253Z,65.00
2022-09-26T15:39:32.663Z,62.04
2022-09-26T15:42:31.889Z,63.85
2022-09-26T15:45:05.044Z,61.65
2022-09-26T15:47:32.080Z,64.88
2022-09-26T15:50:27.253Z,64.01
2022-09-26T15:53:11.778Z,63.31
2022-09-26T15:56:03.449Z,64.49
2022-09-26T15:58:53.286Z,63.17
2022-09-26T16:01:29.471Z,65.76
2022-09-26T16:04:13.496Z,64.39
2022-09-26T16:06:52.642Z,65.93
2022-09-26T16:09:19.784Z,66.21
2022-09-26T16:11:53.232Z,65.81
2022-09-26T16:14:44.715Z,64.60
2022-09-26T16:17:32.264Z,68.14
2022-09-26T16:20:05.479Z,67.24
2022-09-26T16:22:54.702Z,66.41
2022-09-26T16:25:47.698Z,67.29
2022-09-26T16:28:15.564Z,67.57
2022-09-26T16:30:51.540Z,67.84
2022-09-26T16:33:33.961Z,67.70
2022-09-26T16:36:19.285Z,68.69
2022-09-26T16:38:56.445Z,68.93
2022-09-26T16:41:56.426Z,66.57
2022-09-26T16:44:26.267Z,67.00
2022-09-26T16:47:05.362Z,69.23
2022-09-26T16:49:48.696Z,68.13
2022-09-26T16:52:36.166Z,70.51
2022-09-26T16:55:06.127Z,69.64
2022-09-26T16:57:47.009Z,68.50
2022-09-26T17:00:41.775Z,69.38
2022-09-26T17:03:36.472Z,69.65
2022-09-26T17:06:03.354Z,68.88
2022-09-26T17:08:30.058Z,69.11
2022-09-26T17:11:02.695Z,70.67
2022-09-26T17:13:34.053Z,70.24
2022-09-26T17:16:02.427Z,70.65
2022-09-26T17:18:32.355Z,68.37
2022-09-26T17:20:59.579Z,68.46
2022-09-26T17:23:39.891Z,66.59
2022-09-26T17:26:10.786Z,68.57
2022-09-26T17:28:44.520Z,68.19
2022-09-26T17:31:19.464Z,68.32
2022-09-26T17:33:49.852Z,69.58
2022-09-26T17:36:28.848Z,68.63
2022-09-26T17:38:59.475Z,67.08
2022-09-26T17:41:27.810Z,69.15
2022-09-26T17:44:00.704Z,70.33
2022-09-26T17:46:28.645Z,70.84
2022-09-26T17:48:56.233Z,70.06
2022-09-26T17:51:23.872Z,71.00
2022-09-26T17:53:52.394Z,70.92
2022-09-26T17:56:20.433Z,70.74
2022-09-26T17:58:49.228Z,71.33
2022-09-26T18:01:26.524Z,71.37
2022-09-26T18:04:00.893Z,71.15
2022-09-26T18:06:32.708Z,69.77
2022-09-26T18:09:07.325Z,71.19
2022-09-26T18:11:34.869Z,72.74
2022-09-26T18:14:06.794Z,72.32
2022-09-26T18:16:33.574Z,71.85
2022-09-26T18:19:06.105Z,70.58
2022-09-26T18:21:34.220Z,71.30
2022-09-26T18:24:06.493Z,73.18
2022-09-26T18:26:47.065Z,72.78
2022-09-26T18:29:47.792Z,73.00
2022-09-26T18:32:31.602Z,72.93
2022-09-26T18:35:01.107Z,74.10
2022-09-26T18:37:28.602Z,73.38
2022-09-26T18:39:58.991Z,75.18
2022-09-26T18:42:28.412Z,74.57
2022-09-26T18:45:05.190Z,74.13
2022-09-26T18:47:42.751Z,74.09
2022-09-26T18:50:31.438Z,75.49
2022-09-26T18:52:58.526Z,75.23
2022-09-26T18:55:45.602Z,75.69
2022-09-26T18:58:24.288Z,75.23
2022-09-26T19:01:06.975Z,75.66
2022-09-26T19:03:37.867Z,76.25
2022-09-26T19:06:16.117Z,76.09
2022-09-26T19:08:49.646Z,76.08
2022-09-26T19:11:28.050Z,76.19
2022-09-26T19:13:57.911Z,74.75
2022-09-26T19:16:25.001Z,75.61
2022-09-26T19:18:52.289Z,75.54
2022-09-26T19:21:30.363Z,73.58
2022-09-26T19:24:04.522Z,73.78
2022-09-26T19:26:41.796Z,73.77
2022-09-26T19:29:18.445Z,73.62
2022-09-26T19:31:45.190Z,74.60
2022-09-26T19:34:15.964Z,74.55
2022-09-26T19:36:42.692Z,74.23
2022-09-26T19:39:15.961Z,73.88
2022-09-26T19:41:42.597Z,73.02
2022-09-26T19:44:09.503Z,72.13
2022-09-26T19:46:39.481Z,70.35
2022-09-26T19:49:07.260Z,70.75
2022-09-26T19:51:39.654Z,71.86
2022-09-26T19:54:06.776Z,70.63
2022-09-26T19:56:34.815Z,70.80
2022-09-26T19:59:01.850Z,70.92
2022-09-26T20:01:28.554Z,69.75
2022-09-26T20:03:55.259Z,71.09
2022-09-26T20:06:25.597Z,70.49
2022-09-26T20:09:01.225Z,68.44
2022-09-26T20:11:29.317Z,69.58
2022-09-26T20:14:14.871Z,68.83
2022-09-26T20:16:42.857Z,68.72
2022-09-26T20:19:21.910Z,69.37
2022-09-26T20:21:48.506Z,69.02
2022-09-26T20:24:18.891Z,67.22
2022-09-26T20:26:48.256Z,67.97
2022-09-26T20:29:16.444Z,68.07
2022-09-26T20:31:43.449Z,66.15
2022-09-26T20:34:11.545Z,68.06
2022-09-26T20:36:47.687Z,67.62
2022-09-26T20:39:25.651Z,67.97
2022-09-26T20:41:52.838Z,67.38
2022-09-26T20:44:33.615Z,66.30
2022-09-26T20:47:04.607Z,66.69
2022-09-26T20:49:37.690Z,67.64
2022-09-26T20:52:08.853Z,66.71
2022-09-26T20:54:36.192Z,67.56
2022-09-26T20:57:02.875Z,66.84
2022-09-26T20:59:29.715Z,66.67
2022-09-26T21:01:58.945Z,66.40
2022-09-26T21:04:32.433Z,66.06
2022-09-26T21:06:59.155Z,66.91
2022-09-26T21:09:25.725Z,67.02
2022-09-26T21:11:52.300Z,66.65
2022-09-26T21:14:18.958Z,66.73
2022-09-26T21:16:51.885Z,67.55
2022-09-26T21:19:24.643Z,66.87
2022-09-26T21:21:52.088Z,67.41
2022-09-26T21:24:28.667Z,67.14
2022-09-26T21:26:55.434Z,67.60
2022-09-26T21:29:22.383Z,67.38
2022-09-26T21:31:52.624Z,68.31
2022-09-26T21:34:26.210Z,67.70
2022-09-26T21:36:57.004Z,67.74
2022-09-26T21:39:25.923Z,67.44
2022-09-26T21:41:57.778Z,67.94
2022-09-26T21:44:48.566Z,69.31
2022-09-26T21:47:15.524Z,69.23
2022-09-26T21:49:42.191Z,67.88
2022-09-26T21:52:20.232Z,68.79
2022-09-26T21:54:47.352Z,68.90
2022-09-26T21:57:23.651Z,67.28
2022-09-26T21:59:53.721Z,69.51
2022-09-26T22:02:20.611Z,68.48
2022-09-26T22:04:47.879Z,68.04
2022-09-26T22:07:15.642Z,69.88
2022-09-26T22:09:42.212Z,68.35
2022-09-26T22:12:08.807Z,68.73
2022-09-26T22:14:35.395Z,68.69
2022-09-26T22:17:02.067Z,68.21
2022-09-26T22:19:33.487Z,68.78
2022-09-26T22:22:01.606Z,68.12
2022-09-26T22:24:28.360Z,68.76
2022-09-26T22:26:55.051Z,68.44
2022-09-26T22:29:21.726Z,68.60
2022-09-26T22:31:48.344Z,68.79
2022-09-26T22:34:15.753Z,68.67
2022-09-26T22:36:42.462Z,69.01
2022-09-26T22:39:09.165Z,68.12
2022-09-26T22:41:35.835Z,69.31
2022-09-26T22:44:04.271Z,69.27
2022-09-26T22:46:34.358Z,69.17
2022-09-26T22:49:01.507Z,69.67
2022-09-26T22:51:28.968Z,69.33
2022-09-26T22:53:55.806Z,69.35
2022-09-26T22:56:22.659Z,68.90
2022-09-26T22:58:52.214Z,70.28
2022-09-26T23:01:25.897Z,68.10
2022-09-26T23:03:55.297Z,69.27
2022-09-26T23:06:23.625Z,68.56
2022-09-26T23:08:50.689Z,69.36
2022-09-26T23:11:18.237Z,70.56
2022-09-26T23:13:46.578Z,70.37
2022-09-26T23:16:17.198Z,70.15
2022-09-26T23:18:44.519Z,72.42
2022-09-26T23:21:19.968Z,73.21
2022-09-26T23:23:52.311Z,72.28
2022-09-26T23:26:31.842Z,73.21
2022-09-26T23:28:59.730Z,74.70
2022-09-26T23:31:28.188Z,74.18
2022-09-26T23:33:56.126Z,74.37
2022-09-26T23:36:23.180Z,73.69
2022-09-26T23:38:49.957Z,74.11
2022-09-26T23:41:17.327Z,74.21
2022-09-26T23:43:49.828Z,74.20
2022-09-26T23:46:16.587Z,75.21
2022-09-26T23:48:43.542Z,74.25
2022-09-26T23:51:10.403Z,74.24
2022-09-26T23:53:37.509Z,75.12
2022-09-26T23:56:10.798Z,75.25
2022-09-26T23:58:38.320Z,73.48
